createdAt,value
2016-11-18T00:00:44.824Z,0
2016-11-18T00:01:58.535Z,0
2016-11-18T00:03:11.221Z,0
2016-11-18T00:04:24.920Z,0
2016-11-18T00:05:38.612Z,0
2016-11-18T00:06:52.342Z,0
2016-11-18T00:08:06.112Z,0
2016-11-18T00:09:19.839Z,0
2016-11-18T00:10:33.777Z,0
2016-11-18T00:11:47.585Z,0
2016-11-18T00:13:01.298Z,0
2016-11-18T00:14:15.223Z,0
2016-11-18T00:15:29.087Z,0
2016-11-18T00:16:42.787Z,0
2016-11-18T00:17:56.481Z,0
2016-11-18T00:19:10.200Z,0
2016-11-18T00:20:23.895Z,0
2016-11-18T00:21:37.603Z,0
2016-11-18T00:22:51.316Z,0
2016-11-18T00:24:05.021Z,0
2016-11-18T00:25:18.721Z,0
2016-11-18T00:26:32.431Z,0
2016-11-18T00:27:46.432Z,0
2016-11-18T00:29:00.167Z,0
2016-11-18T00:30:13.883Z,0
2016-11-18T00:31:27.608Z,0
2016-11-18T00:32:41.311Z,0
2016-11-18T00:33:55.182Z,0
2016-11-18T00:35:08.941Z,0
2016-11-18T00:36:22.634Z,0
2016-11-18T00:37:36.393Z,0
2016-11-18T00:38:50.110Z,0
2016-11-18T00:40:03.796Z,0
2016-11-18T00:41:17.492Z,0
2016-11-18T00:42:31.195Z,0
2016-11-18T00:43:44.928Z,0
2016-11-18T00:44:58.635Z,0
2016-11-18T00:46:12.338Z,0
2016-11-18T00:47:26.038Z,0
2016-11-18T00:48:39.822Z,0
2016-11-18T00:49:53.538Z,0
2016-11-18T00:51:07.258Z,0
2016-11-18T00:52:19.677Z,0
2016-11-18T00:53:33.377Z,0
2016-11-18T00:54:45.854Z,0
2016-11-18T00:55:59.569Z,0
2016-11-18T00:57:13.303Z,0
2016-11-18T00:58:27.012Z,0
2016-11-18T00:59:40.732Z,0
2016-11-18T01:00:54.449Z,0
2016-11-18T01:02:08.209Z,0
2016-11-18T01:03:21.954Z,0
2016-11-18T01:04:35.892Z,0
2016-11-18T01:05:49.604Z,0
2016-11-18T01:07:03.306Z,0
2016-11-18T01:08:17.010Z,0
2016-11-18T01:09:30.714Z,0
2016-11-18T01:10:43.281Z,0
2016-11-18T01:11:56.986Z,0
2016-11-18T01:13:09.402Z,0
2016-11-18T01:14:23.320Z,0
2016-11-18T01:15:37.045Z,0
2016-11-18T01:16:50.779Z,0
2016-11-18T01:18:04.481Z,0
2016-11-18T01:19:18.202Z,0
2016-11-18T01:20:31.928Z,0
2016-11-18T01:21:44.334Z,0
2016-11-18T01:22:58.216Z,0
2016-11-18T01:24:11.908Z,0
2016-11-18T01:25:25.609Z,0
2016-11-18T01:26:39.316Z,0
2016-11-18T01:27:53.000Z,0
2016-11-18T01:29:06.731Z,0
2016-11-18T01:30:20.426Z,0
2016-11-18T01:31:32.839Z,0
2016-11-18T01:32:45.331Z,0
2016-11-18T01:33:59.051Z,0
2016-11-18T01:35:12.748Z,0
2016-11-18T01:36:26.459Z,0
2016-11-18T01:37:40.250Z,0
2016-11-18T01:38:54.082Z,0
2016-11-18T01:40:07.817Z,0
2016-11-18T01:41:21.524Z,0
2016-11-18T01:42:35.276Z,0
2016-11-18T01:43:48.968Z,0
2016-11-18T01:45:01.436Z,0
2016-11-18T01:46:15.134Z,0
2016-11-18T01:47:28.934Z,0
2016-11-18T01:48:42.623Z,0
2016-11-18T01:49:56.338Z,0
2016-11-18T01:51:10.286Z,0
2016-11-18T01:52:24.075Z,0
2016-11-18T01:53:36.496Z,0
2016-11-18T01:54:50.249Z,0
2016-11-18T01:56:02.777Z,0
2016-11-18T01:57:16.473Z,0
2016-11-18T01:58:30.200Z,0
2016-11-18T01:59:43.916Z,0
2016-11-18T02:00:57.606Z,0
2016-11-18T02:02:11.312Z,0
2016-11-18T02:03:25.001Z,0
2016-11-18T02:04:38.700Z,0
2016-11-18T02:05:52.433Z,0
2016-11-18T02:07:06.156Z,0
2016-11-18T02:08:20.098Z,0
2016-11-18T02:09:33.823Z,0
2016-11-18T02:10:47.519Z,0
2016-11-18T02:12:01.246Z,0
2016-11-18T02:13:14.959Z,0
2016-11-18T02:14:28.683Z,0
2016-11-18T02:15:42.387Z,0
2016-11-18T02:16:56.143Z,0
2016-11-18T02:18:08.562Z,0
2016-11-18T02:19:21.022Z,0
2016-11-18T02:20:34.737Z,0
2016-11-18T02:21:48.443Z,0
2016-11-18T02:23:00.937Z,0
2016-11-18T02:24:14.634Z,0
2016-11-18T02:25:28.337Z,0
2016-11-18T02:26:42.041Z,0
2016-11-18T02:27:55.749Z,0
2016-11-18T02:29:08.196Z,0
2016-11-18T02:30:21.893Z,0
2016-11-18T02:31:35.642Z,0
2016-11-18T02:32:49.363Z,0
2016-11-18T02:34:03.057Z,0
2016-11-18T02:35:16.763Z,0
2016-11-18T02:36:30.459Z,0
2016-11-18T02:37:44.180Z,0
2016-11-18T02:38:57.917Z,0
2016-11-18T02:40:11.630Z,0
2016-11-18T02:41:25.328Z,0
2016-11-18T02:42:39.025Z,0
2016-11-18T02:43:51.473Z,0
2016-11-18T02:45:05.188Z,0
2016-11-18T02:46:18.904Z,0
2016-11-18T02:47:32.605Z,0
2016-11-18T02:48:46.296Z,0
2016-11-18T02:49:59.993Z,0
2016-11-18T02:51:13.704Z,0
2016-11-18T02:52:26.222Z,0
2016-11-18T02:53:39.985Z,0
2016-11-18T02:54:52.404Z,0
2016-11-18T02:56:06.123Z,0
2016-11-18T02:57:19.829Z,0
2016-11-18T02:58:33.701Z,0
2016-11-18T02:59:47.400Z,0
2016-11-18T03:01:01.150Z,0
2016-11-18T03:02:14.872Z,0
2016-11-18T03:03:28.567Z,0
2016-11-18T03:04:41.037Z,0
2016-11-18T03:05:54.893Z,0
2016-11-18T03:07:08.606Z,0
2016-11-18T03:08:22.305Z,0
2016-11-18T03:09:36.028Z,0
2016-11-18T03:10:48.446Z,0
2016-11-18T03:12:02.164Z,0
2016-11-18T03:13:15.964Z,0
2016-11-18T03:14:27.243Z,0
2016-11-18T03:15:40.947Z,0
2016-11-18T03:16:53.374Z,0
2016-11-18T03:18:07.092Z,0
2016-11-18T03:19:20.934Z,0
2016-11-18T03:20:34.625Z,0
2016-11-18T03:21:48.330Z,0
2016-11-18T03:23:02.080Z,0
2016-11-18T03:24:14.656Z,0
2016-11-18T03:25:28.349Z,0
2016-11-18T03:26:42.064Z,0
2016-11-18T03:27:55.994Z,0
2016-11-18T03:29:09.709Z,0
2016-11-18T03:30:23.483Z,0
2016-11-18T03:31:37.206Z,0
2016-11-18T03:32:50.960Z,0
2016-11-18T03:34:04.722Z,0
2016-11-18T03:35:18.417Z,0
2016-11-18T03:36:32.121Z,0
2016-11-18T03:37:45.826Z,0
2016-11-18T03:38:59.526Z,0
2016-11-18T03:40:13.230Z,0
2016-11-18T03:41:26.949Z,0
2016-11-18T03:42:40.696Z,0
2016-11-18T03:43:54.412Z,0
2016-11-18T03:45:08.134Z,0
2016-11-18T03:46:22.089Z,0
2016-11-18T03:47:35.795Z,0
2016-11-18T03:48:49.515Z,0
2016-11-18T03:50:03.218Z,0
2016-11-18T03:51:16.911Z,0
2016-11-18T03:52:30.600Z,0
2016-11-18T03:53:44.319Z,0
2016-11-18T03:54:58.004Z,0
2016-11-18T03:56:11.729Z,0
2016-11-18T03:57:25.452Z,0
2016-11-18T03:58:37.899Z,0
2016-11-18T03:59:51.594Z,0
2016-11-18T04:01:05.304Z,0
2016-11-18T04:02:18.998Z,0
2016-11-18T04:03:32.709Z,0
2016-11-18T04:04:45.148Z,0
2016-11-18T04:05:58.939Z,0
2016-11-18T04:07:12.685Z,0
2016-11-18T04:08:26.409Z,0
2016-11-18T04:09:40.091Z,0
2016-11-18T04:10:53.787Z,0
2016-11-18T04:12:07.483Z,0
2016-11-18T04:13:21.166Z,0
2016-11-18T04:14:34.909Z,0
2016-11-18T04:15:48.655Z,0
2016-11-18T04:17:02.383Z,0
2016-11-18T04:18:16.322Z,0
2016-11-18T04:19:28.732Z,0
2016-11-18T04:20:42.646Z,0
2016-11-18T04:21:56.377Z,0
2016-11-18T04:23:10.068Z,0
2016-11-18T04:24:23.771Z,0
2016-11-18T04:25:37.481Z,0
2016-11-18T04:26:51.178Z,0
2016-11-18T04:28:03.607Z,0
2016-11-18T04:29:17.453Z,0
2016-11-18T04:30:31.187Z,0
2016-11-18T04:31:44.888Z,0
2016-11-18T04:32:58.580Z,0
2016-11-18T04:34:12.276Z,0
2016-11-18T04:35:25.966Z,0
2016-11-18T04:36:39.664Z,0
2016-11-18T04:37:52.248Z,0
2016-11-18T04:39:04.708Z,0
2016-11-18T04:40:18.398Z,0
2016-11-18T04:41:32.119Z,0
2016-11-18T04:42:45.862Z,0
2016-11-18T04:43:59.556Z,0
2016-11-18T04:45:13.244Z,0
2016-11-18T04:46:26.992Z,0
2016-11-18T04:47:40.792Z,0
2016-11-18T04:48:54.496Z,0
2016-11-18T04:50:08.199Z,0
2016-11-18T04:51:20.606Z,0
2016-11-18T04:52:34.311Z,0
2016-11-18T04:53:48.107Z,0
2016-11-18T04:55:01.810Z,0
2016-11-18T04:56:15.576Z,0
2016-11-18T04:57:27.981Z,0
2016-11-18T04:58:41.670Z,0
2016-11-18T04:59:54.179Z,0
2016-11-18T05:01:07.890Z,0
2016-11-18T05:02:21.604Z,0
2016-11-18T05:03:35.310Z,0
2016-11-18T05:04:49.056Z,0
2016-11-18T05:06:02.748Z,0
2016-11-18T05:07:16.451Z,0
2016-11-18T05:08:28.885Z,0
2016-11-18T05:09:42.677Z,0
2016-11-18T05:10:56.415Z,0
2016-11-18T05:12:10.112Z,0
2016-11-18T05:13:23.819Z,0
2016-11-18T05:14:37.525Z,0
2016-11-18T05:15:51.226Z,0
2016-11-18T05:17:03.705Z,0
2016-11-18T05:18:17.645Z,0
2016-11-18T05:19:31.414Z,0
2016-11-18T05:20:45.236Z,0
2016-11-18T05:21:58.997Z,0
2016-11-18T05:23:11.416Z,0
2016-11-18T05:24:25.136Z,0
2016-11-18T05:25:38.848Z,0
2016-11-18T05:26:52.549Z,0
2016-11-18T05:28:06.254Z,0
2016-11-18T05:29:19.939Z,0
2016-11-18T05:30:33.733Z,0
2016-11-18T05:31:47.441Z,0
2016-11-18T05:33:01.145Z,0
2016-11-18T05:34:14.843Z,0
2016-11-18T05:35:28.565Z,0
2016-11-18T05:36:42.270Z,0
2016-11-18T05:37:55.961Z,0
2016-11-18T05:39:08.476Z,0
2016-11-18T05:40:22.228Z,0
2016-11-18T05:41:35.957Z,0
2016-11-18T05:42:49.665Z,0
2016-11-18T05:44:02.078Z,0
2016-11-18T05:45:15.901Z,0
2016-11-18T05:46:27.044Z,0
2016-11-18T05:47:40.758Z,0
2016-11-18T05:48:54.781Z,0
2016-11-18T05:50:08.478Z,0
2016-11-18T05:51:22.357Z,0
2016-11-18T05:52:34.855Z,0
2016-11-18T05:53:48.558Z,0
2016-11-18T05:55:00.986Z,0
2016-11-18T05:56:14.693Z,0
2016-11-18T05:57:28.393Z,0
2016-11-18T05:58:42.103Z,0
2016-11-18T05:59:55.804Z,0
2016-11-18T06:01:09.864Z,0
2016-11-18T06:02:23.560Z,0
2016-11-18T06:03:36.004Z,4
2016-11-18T06:04:49.755Z,4
2016-11-18T06:06:03.526Z,4
2016-11-18T06:07:17.442Z,4
2016-11-18T06:08:29.885Z,4
2016-11-18T06:09:43.616Z,4
2016-11-18T06:10:57.361Z,8
2016-11-18T06:12:11.106Z,8
2016-11-18T06:13:24.811Z,8
2016-11-18T06:14:38.514Z,12
2016-11-18T06:15:52.264Z,12
2016-11-18T06:17:05.962Z,20
2016-11-18T06:18:19.702Z,20
2016-11-18T06:19:33.467Z,28
2016-11-18T06:20:47.196Z,28
2016-11-18T06:22:00.919Z,36
2016-11-18T06:23:14.873Z,48
2016-11-18T06:24:28.574Z,56
2016-11-18T06:25:42.288Z,60
2016-11-18T06:26:54.827Z,72
2016-11-18T06:28:08.534Z,72
2016-11-18T06:29:22.253Z,76
2016-11-18T06:30:35.958Z,80
2016-11-18T06:31:49.675Z,100
2016-11-18T06:33:03.387Z,128
2016-11-18T06:34:17.529Z,152
2016-11-18T06:35:31.219Z,168
2016-11-18T06:36:44.943Z,192
2016-11-18T06:37:58.669Z,216
2016-11-18T06:39:12.384Z,236
2016-11-18T06:40:26.090Z,252
2016-11-18T06:41:39.828Z,272
2016-11-18T06:42:53.782Z,304
2016-11-18T06:44:07.472Z,320
2016-11-18T06:45:21.180Z,344
2016-11-18T06:46:34.893Z,372
2016-11-18T06:47:48.627Z,400
2016-11-18T06:49:02.334Z,416
2016-11-18T06:50:16.038Z,436
2016-11-18T06:51:29.879Z,448
2016-11-18T06:52:43.581Z,444
2016-11-18T06:53:57.320Z,420
2016-11-18T06:55:09.722Z,388
2016-11-18T06:56:23.455Z,276
2016-11-18T06:57:37.319Z,256
2016-11-18T06:58:51.022Z,268
2016-11-18T07:00:04.729Z,312
2016-11-18T07:01:17.156Z,352
2016-11-18T07:02:30.859Z,344
2016-11-18T07:03:44.551Z,348
2016-11-18T07:04:58.286Z,320
2016-11-18T07:06:12.218Z,412
2016-11-18T07:07:25.933Z,520
2016-11-18T07:08:39.640Z,488
2016-11-18T07:09:52.062Z,512
2016-11-18T07:11:04.477Z,492
2016-11-18T07:12:18.188Z,496
2016-11-18T07:13:31.883Z,536
2016-11-18T07:14:45.572Z,536
2016-11-18T07:15:58.039Z,504
2016-11-18T07:17:11.876Z,516
2016-11-18T07:18:25.615Z,568
2016-11-18T07:19:39.323Z,584
2016-11-18T07:20:53.074Z,828
2016-11-18T07:22:06.779Z,1056
2016-11-18T07:23:19.188Z,976
2016-11-18T07:24:32.969Z,1208
2016-11-18T07:25:46.657Z,1384
2016-11-18T07:27:00.395Z,1556
2016-11-18T07:28:14.097Z,1680
2016-11-18T07:29:27.813Z,1860
2016-11-18T07:30:41.518Z,2032
2016-11-18T07:31:53.974Z,1944
2016-11-18T07:33:06.389Z,2000
2016-11-18T07:34:20.110Z,1968
2016-11-18T07:35:33.908Z,1968
2016-11-18T07:36:47.617Z,2604
2016-11-18T07:38:01.317Z,2488
2016-11-18T07:39:15.030Z,3000
2016-11-18T07:40:29.042Z,3416
2016-11-18T07:41:42.775Z,3340
2016-11-18T07:42:56.474Z,3572
2016-11-18T07:44:10.168Z,3684
2016-11-18T07:45:23.870Z,4020
2016-11-18T07:46:37.576Z,4164
2016-11-18T07:47:49.985Z,4840
2016-11-18T07:49:03.757Z,4508
2016-11-18T07:50:17.445Z,5152
2016-11-18T07:51:31.159Z,3704
2016-11-18T07:52:44.874Z,4796
2016-11-18T07:53:58.577Z,6528
2016-11-18T07:55:12.293Z,6616
2016-11-18T07:56:25.985Z,6504
2016-11-18T07:57:39.678Z,6032
2016-11-18T07:58:53.371Z,4828
2016-11-18T08:00:07.066Z,7128
2016-11-18T08:01:20.766Z,5348
2016-11-18T08:02:34.518Z,4792
2016-11-18T08:03:48.334Z,4268
2016-11-18T08:05:02.141Z,4572
2016-11-18T08:06:15.859Z,5956
2016-11-18T08:07:29.556Z,7272
2016-11-18T08:08:41.979Z,6620
2016-11-18T08:09:55.681Z,7584
2016-11-18T08:11:09.485Z,8244
2016-11-18T08:12:23.192Z,9144
2016-11-18T08:13:35.597Z,18176
2016-11-18T08:14:49.329Z,26688
2016-11-18T08:16:03.011Z,28288
2016-11-18T08:17:16.715Z,29152
2016-11-18T08:18:30.412Z,30464
2016-11-18T08:19:44.120Z,33376
2016-11-18T08:20:57.852Z,32832
2016-11-18T08:22:11.581Z,35488
2016-11-18T08:23:23.993Z,8144
2016-11-18T08:24:37.694Z,8404
2016-11-18T08:25:50.103Z,10340
2016-11-18T08:27:04.056Z,33376
2016-11-18T08:28:17.787Z,8560
2016-11-18T08:29:31.744Z,35072
2016-11-18T08:30:44.173Z,36192
2016-11-18T08:31:57.866Z,5288
2016-11-18T08:33:11.576Z,7084
2016-11-18T08:34:25.279Z,1248
2016-11-18T08:35:37.853Z,796
2016-11-18T08:36:52.225Z,872
2016-11-18T08:38:05.928Z,936
2016-11-18T08:39:19.661Z,1024
2016-11-18T08:40:33.425Z,1224
2016-11-18T08:41:47.135Z,1024
2016-11-18T08:43:00.878Z,880
2016-11-18T08:44:13.345Z,812
2016-11-18T08:45:24.532Z,992
2016-11-18T08:46:38.257Z,1512
2016-11-18T08:47:51.975Z,2124
2016-11-18T08:49:05.679Z,2836
2016-11-18T08:50:19.417Z,3200
2016-11-18T08:51:33.182Z,2460
2016-11-18T08:52:46.898Z,1928
2016-11-18T08:53:59.315Z,1512
2016-11-18T08:55:13.003Z,1320
2016-11-18T08:56:26.736Z,1336
2016-11-18T08:57:40.453Z,1736
2016-11-18T08:58:54.170Z,2384
2016-11-18T09:00:07.864Z,2236
2016-11-18T09:01:21.574Z,2536
2016-11-18T09:02:34.031Z,3060
2016-11-18T09:03:47.723Z,3340
2016-11-18T09:05:01.429Z,2852
2016-11-18T09:06:15.148Z,2532
2016-11-18T09:07:28.867Z,2556
2016-11-18T09:08:41.289Z,2800
2016-11-18T09:09:55.072Z,2960
2016-11-18T09:11:08.780Z,3128
2016-11-18T09:12:22.493Z,3468
2016-11-18T09:13:36.199Z,3872
2016-11-18T09:14:50.138Z,4392
2016-11-18T09:16:02.812Z,5292
2016-11-18T09:17:16.567Z,5620
2016-11-18T09:18:29.466Z,5756
2016-11-18T09:19:43.164Z,5856
2016-11-18T09:20:55.571Z,5840
2016-11-18T09:22:08.011Z,5504
2016-11-18T09:23:21.745Z,4892
2016-11-18T09:24:35.478Z,4292
2016-11-18T09:25:49.181Z,4204
2016-11-18T09:27:02.921Z,4316
2016-11-18T09:28:16.646Z,4548
2016-11-18T09:29:30.339Z,4176
2016-11-18T09:30:44.034Z,3360
2016-11-18T09:31:57.747Z,2752
2016-11-18T09:33:11.472Z,2432
2016-11-18T09:34:25.205Z,2212
2016-11-18T09:35:38.960Z,2020
2016-11-18T09:36:52.662Z,1876
2016-11-18T09:38:06.447Z,1660
2016-11-18T09:39:20.154Z,1472
2016-11-18T09:40:33.887Z,1280
2016-11-18T09:41:47.590Z,1072
2016-11-18T09:43:01.295Z,872
2016-11-18T09:44:13.700Z,756
2016-11-18T09:45:27.571Z,732
2016-11-18T09:46:41.285Z,772
2016-11-18T09:47:54.995Z,900
2016-11-18T09:49:07.427Z,900
2016-11-18T09:50:21.131Z,896
2016-11-18T09:51:33.548Z,804
2016-11-18T09:52:47.262Z,860
2016-11-18T09:54:00.991Z,872
2016-11-18T09:55:14.713Z,916
2016-11-18T09:56:28.438Z,1160
2016-11-18T09:57:40.883Z,1944
2016-11-18T09:58:54.840Z,2952
2016-11-18T10:00:07.254Z,4064
2016-11-18T10:01:21.025Z,5588
2016-11-18T10:02:34.725Z,6428
2016-11-18T10:03:48.441Z,7808
2016-11-18T10:05:02.198Z,7900
2016-11-18T10:06:15.902Z,7456
2016-11-18T10:07:29.616Z,6052
2016-11-18T10:08:43.357Z,4836
2016-11-18T10:09:57.061Z,4328
2016-11-18T10:11:10.840Z,4128
2016-11-18T10:12:24.645Z,3636
2016-11-18T10:13:38.362Z,3008
2016-11-18T10:14:52.082Z,2892
2016-11-18T10:16:05.849Z,2740
2016-11-18T10:17:19.555Z,2704
2016-11-18T10:18:33.262Z,2424
2016-11-18T10:19:45.769Z,2328
2016-11-18T10:20:59.475Z,2324
2016-11-18T10:22:13.178Z,2148
2016-11-18T10:23:26.876Z,2232
2016-11-18T10:24:40.583Z,2568
2016-11-18T10:25:54.285Z,3008
2016-11-18T10:27:07.991Z,3656
2016-11-18T10:28:21.674Z,4280
2016-11-18T10:29:35.382Z,5324
2016-11-18T10:30:49.105Z,5568
2016-11-18T10:32:02.810Z,6416
2016-11-18T10:33:16.564Z,5860
2016-11-18T10:34:30.321Z,4872
2016-11-18T10:35:44.328Z,4620
2016-11-18T10:36:58.049Z,3696
2016-11-18T10:38:11.804Z,3712
2016-11-18T10:39:25.610Z,4660
2016-11-18T10:40:39.309Z,6520
2016-11-18T10:41:53.140Z,8936
2016-11-18T10:43:06.852Z,8660
2016-11-18T10:44:20.562Z,6972
2016-11-18T10:45:34.250Z,5552
2016-11-18T10:46:47.963Z,4912
2016-11-18T10:48:01.703Z,5048
2016-11-18T10:49:15.403Z,4216
2016-11-18T10:50:27.818Z,3636
2016-11-18T10:51:41.598Z,3196
2016-11-18T10:52:55.348Z,3240
2016-11-18T10:54:09.087Z,3184
2016-11-18T10:55:22.830Z,3212
2016-11-18T10:56:36.521Z,3096
2016-11-18T10:57:50.233Z,3116
2016-11-18T10:59:03.940Z,3012
2016-11-18T11:00:17.655Z,2704
2016-11-18T11:01:31.586Z,2408
2016-11-18T11:02:45.292Z,2232
2016-11-18T11:03:58.990Z,2352
2016-11-18T11:05:12.736Z,2752
2016-11-18T11:06:26.447Z,2848
2016-11-18T11:07:40.178Z,2728
2016-11-18T11:08:53.909Z,2480
2016-11-18T11:10:07.842Z,2364
2016-11-18T11:11:21.539Z,2116
2016-11-18T11:12:35.279Z,2252
2016-11-18T11:13:48.981Z,2612
2016-11-18T11:15:02.690Z,2756
2016-11-18T11:16:16.408Z,2800
2016-11-18T11:17:30.105Z,3120
2016-11-18T11:18:43.845Z,3588
2016-11-18T11:19:57.558Z,4032
2016-11-18T11:21:11.266Z,3628
2016-11-18T11:22:25.064Z,2872
2016-11-18T11:23:38.767Z,2892
2016-11-18T11:24:52.555Z,3436
2016-11-18T11:26:06.259Z,3196
2016-11-18T11:27:19.967Z,2496
2016-11-18T11:28:33.691Z,2656
2016-11-18T11:29:47.397Z,2680
2016-11-18T11:30:59.830Z,2828
2016-11-18T11:32:13.629Z,3596
2016-11-18T11:33:26.045Z,4612
2016-11-18T11:34:39.747Z,5284
2016-11-18T11:35:52.156Z,5920
2016-11-18T11:37:06.004Z,6252
2016-11-18T11:38:19.713Z,6156
2016-11-18T11:39:33.425Z,5788
2016-11-18T11:40:47.134Z,4224
2016-11-18T11:42:00.835Z,5004
2016-11-18T11:43:14.588Z,6460
2016-11-18T11:44:28.569Z,6596
2016-11-18T11:45:42.298Z,6188
2016-11-18T11:46:56.003Z,6624
2016-11-18T11:48:09.729Z,7016
2016-11-18T11:49:23.478Z,5800
2016-11-18T11:50:37.171Z,4424
2016-11-18T11:51:49.578Z,3436
2016-11-18T11:53:03.319Z,3212
2016-11-18T11:54:17.031Z,3012
2016-11-18T11:55:29.495Z,2868
2016-11-18T11:56:43.410Z,3132
2016-11-18T11:57:57.105Z,3452
2016-11-18T11:59:10.840Z,4364
2016-11-18T12:00:23.506Z,6368
2016-11-18T12:01:37.438Z,8324
2016-11-18T12:02:49.862Z,8364
2016-11-18T12:04:03.582Z,14064
2016-11-18T12:05:17.341Z,19104
2016-11-18T12:06:31.429Z,32000
2016-11-18T12:07:45.124Z,22880
2016-11-18T12:08:58.820Z,40384
2016-11-18T12:10:11.302Z,9560
2016-11-18T12:11:24.993Z,11040
2016-11-18T12:12:38.733Z,12416
2016-11-18T12:13:54.026Z,105120
2016-11-18T12:15:09.270Z,83808
2016-11-18T12:16:24.522Z,38176
2016-11-18T12:17:39.848Z,85440
2016-11-18T12:18:55.091Z,83104
2016-11-18T12:20:10.396Z,73152
2016-11-18T12:21:25.643Z,81696
2016-11-18T12:22:39.354Z,42368
2016-11-18T12:23:53.167Z,12164
2016-11-18T12:25:06.893Z,11428
2016-11-18T12:26:20.617Z,10864
2016-11-18T12:27:34.331Z,11156
2016-11-18T12:28:48.097Z,11388
2016-11-18T12:30:01.817Z,12208
2016-11-18T12:31:15.545Z,12236
2016-11-18T12:32:29.262Z,8896
2016-11-18T12:33:43.198Z,16032
2016-11-18T12:34:56.914Z,17088
2016-11-18T12:36:10.622Z,20576
2016-11-18T12:37:24.333Z,19360
2016-11-18T12:38:38.079Z,17536
2016-11-18T12:39:51.796Z,17280
2016-11-18T12:41:05.514Z,15280
2016-11-18T12:42:19.268Z,12572
2016-11-18T12:43:33.062Z,12364
2016-11-18T12:44:46.767Z,17376
2016-11-18T12:46:00.528Z,14428
2016-11-18T12:47:14.250Z,13368
2016-11-18T12:48:27.983Z,9024
2016-11-18T12:49:41.737Z,7364
2016-11-18T12:50:55.462Z,6832
2016-11-18T12:52:09.435Z,5988
2016-11-18T12:53:23.136Z,5764
2016-11-18T12:54:36.855Z,5924
2016-11-18T12:55:50.570Z,5980
2016-11-18T12:57:04.310Z,5560
2016-11-18T12:58:18.060Z,5348
2016-11-18T12:59:31.807Z,5296
2016-11-18T13:00:44.243Z,6152
2016-11-18T13:01:57.980Z,7096
2016-11-18T13:03:11.759Z,7088
2016-11-18T13:04:25.458Z,7564
2016-11-18T13:05:39.190Z,8764
2016-11-18T13:06:53.188Z,9204
2016-11-18T13:08:06.911Z,9828
2016-11-18T13:09:20.662Z,11420
2016-11-18T13:10:34.363Z,13992
2016-11-18T13:11:48.080Z,14496
2016-11-18T13:13:02.026Z,11476
2016-11-18T13:14:15.743Z,8564
2016-11-18T13:15:28.166Z,7588
2016-11-18T13:16:40.594Z,7084
2016-11-18T13:17:54.311Z,6164
2016-11-18T13:19:08.052Z,5932
2016-11-18T13:20:21.817Z,5592
2016-11-18T13:21:35.528Z,5320
2016-11-18T13:22:49.241Z,5316
2016-11-18T13:24:02.966Z,5668
2016-11-18T13:25:16.676Z,5912
2016-11-18T13:26:30.390Z,6620
2016-11-18T13:27:42.800Z,6464
2016-11-18T13:28:56.509Z,7120
2016-11-18T13:30:10.224Z,7692
2016-11-18T13:31:23.924Z,7312
2016-11-18T13:32:36.362Z,6536
2016-11-18T13:33:50.086Z,5880
2016-11-18T13:35:04.085Z,5956
2016-11-18T13:36:17.788Z,6428
2016-11-18T13:37:31.749Z,7092
2016-11-18T13:38:45.442Z,8992
2016-11-18T13:39:59.146Z,9852
2016-11-18T13:41:12.867Z,7896
2016-11-18T13:42:26.578Z,6192
2016-11-18T13:43:40.311Z,5940
2016-11-18T13:44:54.035Z,6068
2016-11-18T13:46:07.745Z,6348
2016-11-18T13:47:21.480Z,6228
2016-11-18T13:48:35.921Z,5848
2016-11-18T13:49:52.308Z,5872
2016-11-18T13:51:10.071Z,5920
2016-11-18T13:52:25.682Z,6060
2016-11-18T13:53:38.142Z,5180
2016-11-18T13:54:51.857Z,4696
2016-11-18T13:56:05.603Z,5656
2016-11-18T13:57:19.300Z,5288
2016-11-18T13:58:33.057Z,5748
2016-11-18T13:59:46.804Z,6016
2016-11-18T14:01:00.524Z,4664
2016-11-18T14:02:14.615Z,4024
2016-11-18T14:03:28.337Z,3832
2016-11-18T14:04:42.043Z,3392
2016-11-18T14:05:55.788Z,2956
2016-11-18T14:07:09.553Z,2988
2016-11-18T14:08:23.288Z,3236
2016-11-18T14:09:37.031Z,3120
2016-11-18T14:10:50.762Z,3180
2016-11-18T14:12:04.500Z,3152
2016-11-18T14:13:18.272Z,3004
2016-11-18T14:14:30.938Z,2228
2016-11-18T14:15:44.656Z,1544
2016-11-18T14:16:58.371Z,1308
2016-11-18T14:18:12.122Z,1200
2016-11-18T14:19:25.881Z,1244
2016-11-18T14:20:39.588Z,1664
2016-11-18T14:21:53.306Z,1924
2016-11-18T14:23:07.006Z,1548
2016-11-18T14:24:20.712Z,1200
2016-11-18T14:25:34.420Z,1100
2016-11-18T14:26:48.286Z,1104
2016-11-18T14:28:02.075Z,1120
2016-11-18T14:29:15.835Z,876
2016-11-18T14:30:29.589Z,740
2016-11-18T14:31:43.304Z,768
2016-11-18T14:32:57.050Z,792
2016-11-18T14:34:10.876Z,704
2016-11-18T14:35:24.619Z,564
2016-11-18T14:36:38.350Z,476
2016-11-18T14:37:52.058Z,444
2016-11-18T14:39:05.793Z,380
2016-11-18T14:40:19.488Z,296
2016-11-18T14:41:33.191Z,256
2016-11-18T14:42:46.916Z,192
2016-11-18T14:44:00.876Z,144
2016-11-18T14:45:14.580Z,128
2016-11-18T14:46:28.314Z,100
2016-11-18T14:47:42.029Z,140
2016-11-18T14:48:55.732Z,188
2016-11-18T14:50:09.475Z,256
2016-11-18T14:51:23.538Z,172
2016-11-18T14:52:37.484Z,116
2016-11-18T14:53:51.255Z,152
2016-11-18T14:55:05.020Z,172
2016-11-18T14:56:18.738Z,176
2016-11-18T14:57:32.488Z,240
2016-11-18T14:58:46.205Z,288
2016-11-18T14:59:59.936Z,248
2016-11-18T15:01:13.688Z,200
2016-11-18T15:02:27.461Z,208
2016-11-18T15:03:41.694Z,220
2016-11-18T15:04:55.389Z,220
2016-11-18T15:06:09.093Z,212
2016-11-18T15:07:22.795Z,188
2016-11-18T15:08:36.517Z,176
2016-11-18T15:09:50.245Z,168
2016-11-18T15:11:03.947Z,160
2016-11-18T15:12:17.697Z,144
2016-11-18T15:13:31.714Z,128
2016-11-18T15:14:45.439Z,108
2016-11-18T15:15:59.163Z,92
2016-11-18T15:17:12.916Z,84
2016-11-18T15:18:26.966Z,80
2016-11-18T15:19:40.682Z,80
2016-11-18T15:20:54.406Z,76
2016-11-18T15:22:08.369Z,68
2016-11-18T15:23:22.072Z,60
2016-11-18T15:24:35.779Z,48
2016-11-18T15:25:48.203Z,36
2016-11-18T15:27:02.033Z,28
2016-11-18T15:28:15.754Z,20
2016-11-18T15:29:29.495Z,20
2016-11-18T15:30:43.220Z,20
2016-11-18T15:31:56.947Z,20
2016-11-18T15:33:10.727Z,20
2016-11-18T15:34:24.561Z,16
2016-11-18T15:35:38.471Z,12
2016-11-18T15:36:50.889Z,12
2016-11-18T15:38:04.796Z,8
2016-11-18T15:39:18.510Z,8
2016-11-18T15:40:32.307Z,8
2016-11-18T15:41:44.866Z,4
2016-11-18T15:42:57.286Z,4
2016-11-18T15:44:11.032Z,0
2016-11-18T15:45:24.847Z,4
2016-11-18T15:46:37.304Z,4
2016-11-18T15:47:51.023Z,4
2016-11-18T15:49:03.500Z,0
2016-11-18T15:50:15.952Z,0
2016-11-18T15:51:29.657Z,4
2016-11-18T15:52:43.363Z,0
2016-11-18T15:53:57.103Z,0
2016-11-18T15:55:10.843Z,0
2016-11-18T15:56:24.651Z,0
2016-11-18T15:57:38.358Z,0
2016-11-18T15:58:50.786Z,0
2016-11-18T16:00:04.536Z,0
2016-11-18T16:01:17.167Z,0
2016-11-18T16:02:29.618Z,0
2016-11-18T16:03:42.069Z,0
2016-11-18T16:04:55.817Z,0
2016-11-18T16:06:09.637Z,0
2016-11-18T16:07:22.108Z,0
2016-11-18T16:08:35.816Z,0
2016-11-18T16:09:49.535Z,0
2016-11-18T16:11:03.490Z,0
2016-11-18T16:12:17.195Z,0
2016-11-18T16:13:30.914Z,0
2016-11-18T16:14:44.674Z,0
2016-11-18T16:15:58.404Z,0
2016-11-18T16:17:12.102Z,0
2016-11-18T16:18:25.844Z,0
2016-11-18T16:19:39.598Z,0
2016-11-18T16:20:53.371Z,0
2016-11-18T16:22:07.317Z,0
2016-11-18T16:23:21.035Z,0
2016-11-18T16:24:34.918Z,0
2016-11-18T16:25:49.206Z,0
2016-11-18T16:27:02.909Z,0
2016-11-18T16:28:16.965Z,0
2016-11-18T16:29:30.689Z,0
2016-11-18T16:30:44.408Z,0
2016-11-18T16:31:58.106Z,0
2016-11-18T16:33:12.132Z,0
2016-11-18T16:34:25.884Z,0
2016-11-18T16:35:39.604Z,0
2016-11-18T16:36:52.020Z,0
2016-11-18T16:38:05.867Z,0
2016-11-18T16:39:18.296Z,0
2016-11-18T16:40:32.008Z,0
2016-11-18T16:41:45.732Z,0
2016-11-18T16:42:59.432Z,0
2016-11-18T16:44:13.143Z,0
2016-11-18T16:45:25.561Z,0
2016-11-18T16:46:38.006Z,0
2016-11-18T16:47:51.715Z,0
2016-11-18T16:49:05.471Z,0
2016-11-18T16:50:19.342Z,0
2016-11-18T16:51:33.065Z,0
2016-11-18T16:52:47.098Z,0
2016-11-18T16:54:00.867Z,0
2016-11-18T16:55:14.692Z,0
2016-11-18T16:56:28.481Z,0
2016-11-18T16:57:42.195Z,0
2016-11-18T16:58:55.910Z,0
2016-11-18T17:00:09.643Z,0
2016-11-18T17:01:23.383Z,0
2016-11-18T17:02:37.249Z,0
2016-11-18T17:04:21.879Z,0
2016-11-18T17:05:35.634Z,0
2016-11-18T17:06:49.360Z,0
2016-11-18T17:08:03.108Z,0
2016-11-18T17:09:16.918Z,0
2016-11-18T17:10:30.670Z,0
2016-11-18T17:11:44.391Z,0